Prevelis — SYDL — position and weather

sailwx.info

Track history (hours):
 
Tides and Currents Weather Stations Pressure Air Temp Water Temp Dewpoint Dewpoint Depression Visibility Wind Speed Wind Dir Waves Ship Positions

Prevelis

Last reported at 2014-Sep-16 00:34 UTC. Time now 2014-Sep-16 00:53 UTC.
Position N 37°57' E 023°38'.

Length 143 m; draft 5.5 m.

Type: Passenger vessel. MMSI: 239297000.

Date/timePositionNaut miles runAvg speedWind from/ knotsBaromVisibWave heightAir tempDewpointWater temp
2014-Sep-16 00:34N 37°57' E 023°38'0 0.0
2014-Sep-15 23:34N 37°57' E 023°38'0 0.0
2014-Sep-15 22:34N 37°57' E 023°38'0 0.0
2014-Sep-15 21:34N 37°57' E 023°38'0 0.0
2014-Sep-15 20:33N 37°57' E 023°38'0 0.0
2014-Sep-15 19:34N 37°57' E 023°38'0 0.0
2014-Sep-15 18:34N 37°57' E 023°38'0 0.0
2014-Sep-15 17:33N 37°57' E 023°38'0 0.0
2014-Sep-15 16:34N 37°57' E 023°38'0 0.0
2014-Sep-15 15:34N 37°57' E 023°38'0 0.0
2014-Sep-15 14:33N 37°57' E 023°38'0 0.0
2014-Sep-15 13:33N 37°57' E 023°38'0 0.0
2014-Sep-15 12:33N 37°57' E 023°38'0 0.0
2014-Sep-15 11:34N 37°57' E 023°38'0 0.0
2014-Sep-15 10:33N 37°57' E 023°38'0 0.0
2014-Sep-15 09:33N 37°57' E 023°38'0 0.0
2014-Sep-15 08:33N 37°57' E 023°38'0 0.0
2014-Sep-15 07:29N 37°57' E 023°38'4 4.5
2014-Sep-15 06:33N 37°53' E 023°38'5417.7
2014-Sep-15 03:31N 37°05' E 024°09'1717.7
2014-Sep-15 02:32N 36°50' E 024°20'8 8.3
2014-Sep-15 01:31N 36°43' E 024°26'10 9.9
2014-Sep-15 00:34N 36°43' E 024°38'1817.8
2014-Sep-14 23:34N 36°33' E 024°57'1817.6
2014-Sep-14 22:33N 36°24' E 025°16'8 8.1
2014-Sep-14 21:33N 36°23' E 025°26'5 4.7
2014-Sep-14 20:33N 36°19' E 025°26'1511.0
2014-Sep-14 19:11N 36°20' E 025°45'1116.9
2014-Sep-14 18:33N 36°11' E 025°39'4517.9
2014-Sep-14 16:04N 35°30' E 025°18'917.3
2014-Sep-14 15:32N 35°23' E 025°12'3 3.2
2014-Sep-14 14:33N 35°21' E 025°09'1312.6
2014-Sep-14 13:33N 35°22' E 025°24'1817.4
2014-Sep-14 12:33N 35°22' E 025°45'103 6.0
2014-Sep-13 19:32N 36°11' E 027°37'1717.7
2014-Sep-13 18:33N 35°57' E 027°24'88 9.7
2014-Sep-13 09:27N 35°23' E 025°44'2418.1
2014-Sep-13 08:07N 35°22' E 025°14'2 1.0
2014-Sep-13 06:21N 35°23' E 025°12'3117.6
2014-Sep-13 04:33N 35°52' E 025°28'1818.0
2014-Sep-13 03:33N 36°08' E 025°38'1410.3
2014-Sep-13 02:13N 36°21' E 025°45'1217.9
2014-Sep-13 01:33N 36°19' E 025°31'6 5.9
2014-Sep-13 00:32N 36°23' E 025°26'8 8.0
2014-Sep-12 23:33N 36°24' E 025°16'1818.0
2014-Sep-12 22:33N 36°33' E 024°57'1817.8
2014-Sep-12 21:33N 36°43' E 024°38'9 8.5
2014-Sep-12 20:29N 36°43' E 024°27'7 7.6
2014-Sep-12 19:33N 36°49' E 024°21'5317.8
2014-Sep-12 16:33N 37°35' E 023°47'1717.3
2014-Sep-12 15:33N 37°50' E 023°37'7 7.0
2014-Sep-12 14:33N 37°57' E 023°38'0 0.0
2014-Sep-12 13:33N 37°57' E 023°38'0 0.0
2014-Sep-12 12:33N 37°57' E 023°38'0 0.0
2014-Sep-12 11:33N 37°57' E 023°38'0 0.0
2014-Sep-12 10:33N 37°57' E 023°38'0 0.0
2014-Sep-12 09:33N 37°57' E 023°38'0 0.0
2014-Sep-12 08:33N 37°57' E 023°38'0 0.0
2014-Sep-12 07:33N 37°57' E 023°38'0 0.0
2014-Sep-12 06:33N 37°57' E 023°38'0 0.0
2014-Sep-12 05:33N 37°57' E 023°38'7 7.1
2014-Sep-12 04:34N 37°50' E 023°40'6217.9
2014-Sep-12 01:06N 37°01' E 024°28'1018.6
2014-Sep-12 00:33N 36°53' E 024°36'1818.2
2014-Sep-11 23:32N 36°38' E 024°49'1817.8
2014-Sep-11 22:33N 36°28' E 025°07'1615.7
2014-Sep-11 21:33N 36°23' E 025°26'4 4.5
2014-Sep-11 20:33N 36°21' E 025°21'1716.5
2014-Sep-11 19:33N 36°20' E 025°41'5 5.4
2014-Sep-11 18:33N 36°18' E 025°47'1817.8
2014-Sep-11 17:33N 36°04' E 026°02'  
2014-Sep-09 02:31N 36°08' E 025°58'2211.2
2014-Sep-09 00:33N 36°19' E 025°34'8 8.1
2014-Sep-08 23:33N 36°23' E 025°26'4 3.7
2014-Sep-08 22:33N 36°22' E 025°21'1817.7
2014-Sep-08 21:33N 36°30' E 025°01'1717.1
2014-Sep-08 20:33N 36°42' E 024°46'1717.5
2014-Sep-08 19:33N 36°56' E 024°33'5717.9
2014-Sep-08 16:20N 37°37' E 023°43'1317.2
2014-Sep-08 15:33N 37°50' E 023°37'7 7.1
2014-Sep-08 14:33N 37°57' E 023°38'0 0.0
2014-Sep-08 13:33N 37°57' E 023°38'0 0.0
2014-Sep-08 12:33N 37°57' E 023°38'0 0.0
2014-Sep-08 11:33N 37°57' E 023°38'0 0.0
2014-Sep-08 10:33N 37°57' E 023°38'0 0.0
2014-Sep-08 09:33N 37°57' E 023°38'0 0.0
2014-Sep-08 08:34N 37°57' E 023°38'0 0.3
2014-Sep-08 07:33N 37°57' E 023°38'1515.1
2014-Sep-08 06:33N 37°42' E 023°45'5217.2
2014-Sep-08 03:33N 36°57' E 024°15'1716.5
2014-Sep-08 02:33N 36°43' E 024°26'5 4.9
2014-Sep-08 01:28N 36°47' E 024°31'1617.4
2014-Sep-08 00:33N 36°38' E 024°47'1817.8
2014-Sep-07 23:33N 36°29' E 025°06'16 8.0
2014-Sep-07 21:33N 36°23' E 025°25'9 9.2
2014-Sep-07 20:34N 36°19' E 025°35'8 7.8
2014-Sep-07 19:33N 36°21' E 025°45'1616.5
2014-Sep-07 18:33N 36°06' E 025°35'1717.4
2014-Sep-07 17:34N 35°50' E 025°28'31 9.0
2014-Sep-07 14:07N 35°22' E 025°13'4 0.1
2014-Sep-06 06:22N 35°26' E 025°15'2017.8
2014-Sep-06 05:13N 35°45' E 025°24'1217.9
2014-Sep-06 04:33N 35°56' E 025°30'1818.1
2014-Sep-06 03:33N 36°12' E 025°40'9 9.1
2014-Sep-06 02:33N 36°21' E 025°43'1817.8
2014-Sep-06 01:33N 36°21' E 025°21'  
Track history (hours):
 
Tides and Currents Weather Stations Pressure Air Temp Water Temp Dewpoint Dewpoint Depression Visibility Wind Speed Wind Dir Waves Ship Positions

Prevelis

Last reported at 2014-Sep-16 00:34 UTC. Time now 2014-Sep-16 00:53 UTC.
Position N 37°57' E 023°38'.

Length 143 m; draft 5.5 m.

Type: Passenger vessel. MMSI: 239297000.

Date/timePositionNaut miles runAvg speedWind from/ knotsBaromVisibWave heightAir tempDewpointWater temp
2014-Sep-16 00:34N 37°57' E 023°38'0 0.0
2014-Sep-15 23:34N 37°57' E 023°38'0 0.0
2014-Sep-15 22:34N 37°57' E 023°38'0 0.0
2014-Sep-15 21:34N 37°57' E 023°38'0 0.0
2014-Sep-15 20:33N 37°57' E 023°38'0 0.0
2014-Sep-15 19:34N 37°57' E 023°38'0 0.0
2014-Sep-15 18:34N 37°57' E 023°38'0 0.0
2014-Sep-15 17:33N 37°57' E 023°38'0 0.0
2014-Sep-15 16:34N 37°57' E 023°38'0 0.0
2014-Sep-15 15:34N 37°57' E 023°38'0 0.0
2014-Sep-15 14:33N 37°57' E 023°38'0 0.0
2014-Sep-15 13:33N 37°57' E 023°38'0 0.0
2014-Sep-15 12:33N 37°57' E 023°38'0 0.0
2014-Sep-15 11:34N 37°57' E 023°38'0 0.0
2014-Sep-15 10:33N 37°57' E 023°38'0 0.0
2014-Sep-15 09:33N 37°57' E 023°38'0 0.0
2014-Sep-15 08:33N 37°57' E 023°38'0 0.0
2014-Sep-15 07:29N 37°57' E 023°38'4 4.5
2014-Sep-15 06:33N 37°53' E 023°38'5417.7
2014-Sep-15 03:31N 37°05' E 024°09'1717.7
2014-Sep-15 02:32N 36°50' E 024°20'8 8.3
2014-Sep-15 01:31N 36°43' E 024°26'10 9.9
2014-Sep-15 00:34N 36°43' E 024°38'1817.8
2014-Sep-14 23:34N 36°33' E 024°57'1817.6
2014-Sep-14 22:33N 36°24' E 025°16'8 8.1
2014-Sep-14 21:33N 36°23' E 025°26'5 4.7
2014-Sep-14 20:33N 36°19' E 025°26'1511.0
2014-Sep-14 19:11N 36°20' E 025°45'1116.9
2014-Sep-14 18:33N 36°11' E 025°39'4517.9
2014-Sep-14 16:04N 35°30' E 025°18'917.3
2014-Sep-14 15:32N 35°23' E 025°12'3 3.2
2014-Sep-14 14:33N 35°21' E 025°09'1312.6
2014-Sep-14 13:33N 35°22' E 025°24'1817.4
2014-Sep-14 12:33N 35°22' E 025°45'103 6.0
2014-Sep-13 19:32N 36°11' E 027°37'1717.7
2014-Sep-13 18:33N 35°57' E 027°24'88 9.7
2014-Sep-13 09:27N 35°23' E 025°44'2418.1
2014-Sep-13 08:07N 35°22' E 025°14'2 1.0
2014-Sep-13 06:21N 35°23' E 025°12'3117.6
2014-Sep-13 04:33N 35°52' E 025°28'1818.0
2014-Sep-13 03:33N 36°08' E 025°38'1410.3
2014-Sep-13 02:13N 36°21' E 025°45'1217.9
2014-Sep-13 01:33N 36°19' E 025°31'6 5.9
2014-Sep-13 00:32N 36°23' E 025°26'8 8.0
2014-Sep-12 23:33N 36°24' E 025°16'1818.0
2014-Sep-12 22:33N 36°33' E 024°57'1817.8
2014-Sep-12 21:33N 36°43' E 024°38'9 8.5
2014-Sep-12 20:29N 36°43' E 024°27'7 7.6
2014-Sep-12 19:33N 36°49' E 024°21'5317.8
2014-Sep-12 16:33N 37°35' E 023°47'1717.3
2014-Sep-12 15:33N 37°50' E 023°37'7 7.0
2014-Sep-12 14:33N 37°57' E 023°38'0 0.0
2014-Sep-12 13:33N 37°57' E 023°38'0 0.0
2014-Sep-12 12:33N 37°57' E 023°38'0 0.0
2014-Sep-12 11:33N 37°57' E 023°38'0 0.0
2014-Sep-12 10:33N 37°57' E 023°38'0 0.0
2014-Sep-12 09:33N 37°57' E 023°38'0 0.0
2014-Sep-12 08:33N 37°57' E 023°38'0 0.0
2014-Sep-12 07:33N 37°57' E 023°38'0 0.0
2014-Sep-12 06:33N 37°57' E 023°38'0 0.0
2014-Sep-12 05:33N 37°57' E 023°38'7 7.1
2014-Sep-12 04:34N 37°50' E 023°40'6217.9
2014-Sep-12 01:06N 37°01' E 024°28'1018.6
2014-Sep-12 00:33N 36°53' E 024°36'1818.2
2014-Sep-11 23:32N 36°38' E 024°49'1817.8
2014-Sep-11 22:33N 36°28' E 025°07'1615.7
2014-Sep-11 21:33N 36°23' E 025°26'4 4.5
2014-Sep-11 20:33N 36°21' E 025°21'1716.5
2014-Sep-11 19:33N 36°20' E 025°41'5 5.4
2014-Sep-11 18:33N 36°18' E 025°47'1817.8
2014-Sep-11 17:33N 36°04' E 026°02'  
2014-Sep-09 02:31N 36°08' E 025°58'2211.2
2014-Sep-09 00:33N 36°19' E 025°34'8 8.1
2014-Sep-08 23:33N 36°23' E 025°26'4 3.7
2014-Sep-08 22:33N 36°22' E 025°21'1817.7
2014-Sep-08 21:33N 36°30' E 025°01'1717.1
2014-Sep-08 20:33N 36°42' E 024°46'1717.5
2014-Sep-08 19:33N 36°56' E 024°33'5717.9
2014-Sep-08 16:20N 37°37' E 023°43'1317.2
2014-Sep-08 15:33N 37°50' E 023°37'7 7.1
2014-Sep-08 14:33N 37°57' E 023°38'0 0.0
2014-Sep-08 13:33N 37°57' E 023°38'0 0.0
2014-Sep-08 12:33N 37°57' E 023°38'0 0.0
2014-Sep-08 11:33N 37°57' E 023°38'0 0.0
2014-Sep-08 10:33N 37°57' E 023°38'0 0.0
2014-Sep-08 09:33N 37°57' E 023°38'0 0.0
2014-Sep-08 08:34N 37°57' E 023°38'0 0.3
2014-Sep-08 07:33N 37°57' E 023°38'1515.1
2014-Sep-08 06:33N 37°42' E 023°45'5217.2
2014-Sep-08 03:33N 36°57' E 024°15'1716.5
2014-Sep-08 02:33N 36°43' E 024°26'5 4.9
2014-Sep-08 01:28N 36°47' E 024°31'1617.4
2014-Sep-08 00:33N 36°38' E 024°47'1817.8
2014-Sep-07 23:33N 36°29' E 025°06'16 8.0
2014-Sep-07 21:33N 36°23' E 025°25'9 9.2
2014-Sep-07 20:34N 36°19' E 025°35'8 7.8
2014-Sep-07 19:33N 36°21' E 025°45'1616.5
2014-Sep-07 18:33N 36°06' E 025°35'1717.4
2014-Sep-07 17:34N 35°50' E 025°28'31 9.0
2014-Sep-07 14:07N 35°22' E 025°13'4 0.1
2014-Sep-06 06:22N 35°26' E 025°15'2017.8
2014-Sep-06 05:13N 35°45' E 025°24'1217.9
2014-Sep-06 04:33N 35°56' E 025°30'1818.1
2014-Sep-06 03:33N 36°12' E 025°40'9 9.1
2014-Sep-06 02:33N 36°21' E 025°43'1817.8
2014-Sep-06 01:33N 36°21' E 025°21'  

Dump ship's entire track history